Time;durP1;ratioP1;P1;durP2;ratioP2;P2;SDS_P1;SDS_P2;PMS_P1;PMS_P2;Temp;Humidity;BMP_temperature;BMP_pressure;BME280_temperature;BME280_humidity;BME280_pressure;Samples;Min_cycle;Max_cycle;Signal;HPM_P1;HPM_P2
2022/07/07 00:02:23;;;;;;;;;5.50;5.50;;;;;22.52;46.09;101104.27;110193;1267;19240;-65
2022/07/07 00:04:50;;;;;;;;;5.00;5.00;;;;;22.52;45.87;101102.59;110115;1266;19663;-63
2022/07/07 00:07:17;;;;;;;;;5.00;5.00;;;;;22.46;46.00;101099.14;110080;1266;18147;-63
2022/07/07 00:09:45;;;;;;;;;5.00;5.00;;;;;22.47;45.91;101101.72;110020;1266;19384;-63
2022/07/07 00:12:12;;;;;;;;;6.67;6.00;;;;;22.44;46.04;101098.73;110123;1266;18415;-63
2022/07/07 00:14:39;;;;;;;;;6.50;5.00;;;;;22.45;46.01;101096.27;110164;1265;18181;-62
2022/07/07 00:17:07;;;;;;;;;6.00;6.00;;;;;22.53;45.88;101094.78;110088;1266;20118;-64
2022/07/07 00:19:34;;;;;;;;;8.00;6.00;;;;;22.66;45.66;101092.59;110061;1265;19358;-61
2022/07/07 00:22:01;;;;;;;;;9.00;7.00;;;;;22.75;45.37;101092.77;110077;1266;18282;-62
2022/07/07 00:24:28;;;;;;;;;9.00;8.33;;;;;22.78;45.18;101093.13;110200;1267;18667;-64
2022/07/07 00:26:56;;;;;;;;;7.00;6.50;;;;;22.81;45.23;101086.02;110196;1266;19832;-65
2022/07/07 00:29:23;;;;;;;;;9.00;7.00;;;;;22.82;45.09;101087.75;110177;1265;18164;-64
2022/07/07 00:31:50;;;;;;;;;9.00;9.00;;;;;22.81;45.08;101084.52;110191;1265;19323;-61
2022/07/07 00:34:17;;;;;;;;;7.67;7.67;;;;;22.83;44.98;101083.63;110212;1268;18640;-64
2022/07/07 00:36:44;;;;;;;;;9.00;9.00;;;;;22.83;44.87;101080.90;110203;1266;18033;-63
2022/07/07 00:39:12;;;;;;;;;9.33;9.33;;;;;22.82;44.79;101077.31;110250;1267;18870;-64
2022/07/07 00:41:39;;;;;;;;;11.00;10.00;;;;;22.81;44.77;101077.64;110200;1265;18943;-64
2022/07/07 00:44:07;;;;;;;;;9.00;9.00;;;;;22.80;45.02;101079.20;110191;1264;18274;-63
2022/07/07 00:46:36;;;;;;;;;6.33;6.33;;;;;22.81;44.94;101079.43;110158;1266;19609;-63
2022/07/07 00:49:04;;;;;;;;;6.67;6.67;;;;;22.82;44.94;101075.19;110056;1265;18434;-64
2022/07/07 00:51:31;;;;;;;;;9.00;8.00;;;;;22.80;45.01;101076.72;110089;1267;18001;-64
2022/07/07 00:53:58;;;;;;;;;9.00;9.00;;;;;22.81;44.84;101073.25;110157;1268;20136;-63
2022/07/07 00:56:26;;;;;;;;;6.50;6.00;;;;;22.85;44.89;101069.20;110196;1267;19836;-63
2022/07/07 00:58:53;;;;;;;;;9.00;7.00;;;;;22.85;44.87;101065.84;110176;1268;18119;-65
2022/07/07 01:01:21;;;;;;;;;7.00;7.00;;;;;22.86;44.84;101067.55;110119;1266;19994;-61
2022/07/07 01:03:48;;;;;;;;;6.00;6.00;;;;;22.85;44.81;101066.09;110157;1265;18666;-67
2022/07/07 01:06:15;;;;;;;;;6.00;6.00;;;;;22.84;44.86;101064.18;110220;1267;17961;-64
2022/07/07 01:08:43;;;;;;;;;6.67;6.00;;;;;22.85;44.90;101063.69;110163;1265;18807;-62
2022/07/07 01:11:10;;;;;;;;;7.00;6.67;;;;;22.84;44.89;101063.60;110180;1264;18864;-62
2022/07/07 01:13:37;;;;;;;;;5.67;5.67;;;;;22.84;44.90;101059.56;110192;1264;19452;-65
2022/07/07 01:16:04;;;;;;;;;8.00;8.00;;;;;22.85;44.93;101052.77;110058;1266;22334;-61
2022/07/07 01:18:32;;;;;;;;;8.00;7.33;;;;;22.84;45.07;101053.00;109982;1265;18303;-65
2022/07/07 01:20:59;;;;;;;;;9.67;9.00;;;;;22.84;45.05;101047.20;110195;1265;19575;-63
2022/07/07 01:23:26;;;;;;;;;7.00;7.00;;;;;22.83;45.02;101045.67;110235;1267;18991;-63
2022/07/07 01:25:53;;;;;;;;;7.00;6.00;;;;;22.83;45.29;101045.16;110174;1265;22014;-65
2022/07/07 01:28:21;;;;;;;;;9.00;6.00;;;;;22.84;45.19;101041.23;110193;1266;19591;-64
2022/07/07 01:30:48;;;;;;;;;7.00;7.00;;;;;22.85;45.28;101038.00;110194;1266;18804;-63
2022/07/07 01:33:15;;;;;;;;;6.00;5.67;;;;;22.84;45.24;101033.67;110175;1267;22286;-63
2022/07/07 01:35:43;;;;;;;;;6.50;6.00;;;;;22.83;45.31;101032.27;110238;1265;19357;-65
2022/07/07 01:38:10;;;;;;;;;5.67;5.33;;;;;22.82;45.38;101034.33;110148;1267;19311;-62
2022/07/07 01:40:38;;;;;;;;;6.00;6.00;;;;;22.81;45.31;101034.78;110095;1266;21643;-62
2022/07/07 01:43:05;;;;;;;;;5.00;5.00;;;;;22.80;45.53;101035.35;110129;1266;18256;-61
2022/07/07 01:45:32;;;;;;;;;5.33;5.00;;;;;22.78;45.45;101033.01;110192;1266;24554;-62
2022/07/07 01:47:59;;;;;;;;;6.00;5.33;;;;;22.80;45.72;101037.74;110163;1265;18861;-63
2022/07/07 01:50:27;;;;;;;;;9.00;7.00;;;;;22.78;45.71;101035.95;110215;1266;17971;-64
2022/07/07 01:52:54;;;;;;;;;6.00;6.00;;;;;22.79;45.62;101035.12;110187;1266;18757;-63
2022/07/07 01:55:21;;;;;;;;;9.00;7.00;;;;;22.80;45.82;101030.02;110184;1266;18295;-63
2022/07/07 01:57:49;;;;;;;;;5.00;5.00;;;;;22.80;45.69;101029.51;110161;1265;20074;-63
2022/07/07 02:00:17;;;;;;;;;10.00;8.00;;;;;22.79;45.76;101030.30;110185;1266;22065;-64
2022/07/07 02:02:44;;;;;;;;;6.00;6.00;;;;;22.79;46.02;101030.88;110235;1266;20251;-63
2022/07/07 02:05:11;;;;;;;;;8.67;8.33;;;;;22.78;46.19;101030.64;110206;1264;24014;-64
2022/07/07 02:07:38;;;;;;;;;6.00;6.00;;;;;22.77;46.06;101028.54;110246;1265;18875;-65
2022/07/07 02:10:06;;;;;;;;;7.00;6.67;;;;;22.78;46.08;101028.30;110254;1265;19589;-64
2022/07/07 02:12:33;;;;;;;;;6.00;6.00;;;;;22.78;46.19;101030.34;110192;1265;19281;-64
2022/07/07 02:15:00;;;;;;;;;7.00;7.00;;;;;22.77;46.19;101030.20;110142;1265;18785;-63
2022/07/07 02:17:27;;;;;;;;;6.00;6.00;;;;;22.76;46.37;101030.14;110227;1265;21406;-64
2022/07/07 02:19:55;;;;;;;;;9.00;6.00;;;;;22.76;46.54;101028.36;110201;1264;27848;-64
2022/07/07 02:22:22;;;;;;;;;5.67;5.33;;;;;22.76;46.44;101026.99;110197;1264;20276;-65
2022/07/07 02:24:49;;;;;;;;;6.67;6.00;;;;;22.75;46.53;101025.84;110235;1265;18422;-65
2022/07/07 02:27:17;;;;;;;;;7.00;6.00;;;;;22.74;46.43;101022.54;110208;1265;18018;-64
2022/07/07 02:29:44;;;;;;;;;7.00;5.33;;;;;22.76;46.40;101018.50;110306;1265;18803;-64
2022/07/07 02:32:11;;;;;;;;;10.00;10.00;;;;;22.76;46.54;101018.83;110225;1265;18476;-64
2022/07/07 02:34:38;;;;;;;;;10.00;10.00;;;;;22.76;46.56;101019.59;110195;1264;19218;-65
2022/07/07 02:37:06;;;;;;;;;9.00;7.00;;;;;22.75;46.61;101021.48;110268;1265;18747;-65
2022/07/07 02:39:33;;;;;;;;;11.00;10.00;;;;;22.75;46.76;101019.66;110229;1265;19005;-64
2022/07/07 02:42:00;;;;;;;;;10.67;10.00;;;;;22.75;46.67;101016.42;110234;1264;18236;-64
2022/07/07 02:44:27;;;;;;;;;9.00;9.00;;;;;22.75;46.61;101018.23;110247;1265;20854;-64
2022/07/07 02:46:55;;;;;;;;;7.67;7.67;;;;;22.77;46.52;101016.04;110155;1265;18683;-64
2022/07/07 02:49:22;;;;;;;;;6.00;6.00;;;;;22.76;46.67;101017.23;110225;1264;18190;-64
2022/07/07 02:51:50;;;;;;;;;9.00;7.67;;;;;22.76;46.75;101017.40;110234;1265;18696;-64
2022/07/07 02:54:18;;;;;;;;;6.33;6.33;;;;;22.75;46.55;101016.73;110195;1265;21876;-63
2022/07/07 02:56:45;;;;;;;;;5.00;5.00;;;;;22.69;46.78;101017.16;110233;1265;20318;-64
2022/07/07 02:59:12;;;;;;;;;7.00;7.00;;;;;22.67;46.82;101015.50;110218;1265;18654;-64
2022/07/07 03:01:40;;;;;;;;;5.67;5.00;;;;;22.70;46.87;101015.60;110244;1264;18372;-65
2022/07/07 03:04:08;;;;;;;;;6.00;6.00;;;;;22.71;46.71;101015.79;110236;1265;19912;-64
2022/07/07 03:06:36;;;;;;;;;6.00;6.00;;;;;22.72;46.88;101017.77;110232;1265;22818;-65
2022/07/07 03:09:03;;;;;;;;;6.00;5.00;;;;;22.71;46.97;101014.02;110223;1265;18791;-62
2022/07/07 03:11:30;;;;;;;;;5.00;5.00;;;;;22.70;46.85;101016.83;110245;1266;18176;-63
2022/07/07 03:13:58;;;;;;;;;5.50;5.50;;;;;22.71;46.85;101015.15;110245;1264;20189;-64
2022/07/07 03:16:25;;;;;;;;;8.33;6.67;;;;;22.67;46.90;101013.90;110256;1264;18422;-64
2022/07/07 03:18:52;;;;;;;;;5.00;5.00;;;;;22.70;46.91;101012.34;110218;1265;22185;-63
2022/07/07 03:21:20;;;;;;;;;6.00;5.33;;;;;22.71;46.87;101010.50;110202;1265;19084;-65
2022/07/07 03:23:47;;;;;;;;;10.00;7.67;;;;;22.70;46.92;101010.04;110255;1265;18273;-64
2022/07/07 03:26:14;;;;;;;;;7.00;6.00;;;;;22.72;46.91;101007.34;110241;1264;21505;-63
2022/07/07 03:28:42;;;;;;;;;7.00;6.00;;;;;22.71;46.91;101003.38;110222;1264;18606;-64
2022/07/07 03:31:09;;;;;;;;;6.00;6.00;;;;;22.69;46.86;100995.80;110163;1265;19949;-59
2022/07/07 03:33:37;;;;;;;;;6.67;6.67;;;;;22.68;46.96;100995.38;110212;1265;28980;-60
2022/07/07 03:36:04;;;;;;;;;6.00;6.00;;;;;22.72;46.81;101001.19;110213;1265;19066;-63
2022/07/07 03:38:31;;;;;;;;;9.67;9.00;;;;;22.73;46.79;101002.44;110269;1265;18596;-65
2022/07/07 03:40:58;;;;;;;;;7.00;6.33;;;;;22.72;46.96;101000.20;110202;1265;18182;-64
2022/07/07 03:43:26;;;;;;;;;6.00;6.00;;;;;22.70;46.87;100997.05;110228;1264;18790;-64
2022/07/07 03:45:53;;;;;;;;;6.67;6.33;;;;;22.68;47.15;100998.39;110254;1264;18372;-64
2022/07/07 03:48:20;;;;;;;;;6.00;6.00;;;;;22.68;46.90;100996.13;110245;1265;21074;-64
2022/07/07 03:50:47;;;;;;;;;7.00;6.00;;;;;22.69;46.99;100997.44;110222;1265;18716;-63
2022/07/07 03:53:15;;;;;;;;;7.00;6.67;;;;;22.67;47.20;100998.43;110230;1264;18477;-64
2022/07/07 03:55:42;;;;;;;;;11.00;10.00;;;;;22.69;47.08;101000.46;110197;1265;18053;-64
2022/07/07 03:58:09;;;;;;;;;14.00;11.50;;;;;22.67;47.13;100998.21;110210;1265;20774;-63
2022/07/07 04:00:36;;;;;;;;;20.33;18.67;;;;;22.68;47.36;100995.61;110190;1265;18733;-65
2022/07/07 04:03:04;;;;;;;;;15.67;15.00;;;;;22.60;47.48;100998.38;110183;1265;18865;-64
2022/07/07 04:05:31;;;;;;;;;14.00;14.00;;;;;22.61;47.62;100995.05;110170;1265;21123;-62
2022/07/07 04:07:58;;;;;;;;;14.00;12.00;;;;;22.68;47.30;100994.23;110216;1264;19148;-62
2022/07/07 04:10:25;;;;;;;;;13.50;11.00;;;;;22.72;47.29;100999.15;110185;1264;18321;-65
2022/07/07 04:12:53;;;;;;;;;11.00;11.00;;;;;22.73;47.29;100994.86;110237;1265;19226;-63
2022/07/07 04:15:21;;;;;;;;;9.00;9.00;;;;;22.70;47.35;100999.55;110293;1264;18700;-63
2022/07/07 04:17:48;;;;;;;;;11.00;11.00;;;;;22.69;47.39;100995.84;110317;1265;21844;-64
2022/07/07 04:20:15;;;;;;;;;6.67;6.00;;;;;22.71;47.39;100996.27;110246;1264;19021;-64
2022/07/07 04:22:43;;;;;;;;;10.00;9.33;;;;;22.69;47.39;100993.29;110233;1265;19195;-64
2022/07/07 04:25:10;;;;;;;;;8.33;7.00;;;;;22.66;47.54;100989.04;110232;1265;18165;-66
2022/07/07 04:27:37;;;;;;;;;6.00;5.67;;;;;22.63;47.64;100984.07;110227;1264;18863;-64
2022/07/07 04:30:04;;;;;;;;;7.00;7.00;;;;;22.58;47.34;100983.80;110269;1264;22065;-63
2022/07/07 04:32:32;;;;;;;;;5.00;5.00;;;;;22.56;47.50;100981.88;110250;1264;22121;-64
2022/07/07 04:34:59;;;;;;;;;8.33;6.00;;;;;22.52;47.48;100983.80;110266;1265;21695;-64
2022/07/07 04:37:26;;;;;;;;;6.00;6.00;;;;;22.46;47.66;100985.84;110294;1264;18700;-63
2022/07/07 04:39:53;;;;;;;;;6.00;5.00;;;;;22.49;47.66;100985.41;110292;1264;17980;-64
2022/07/07 04:42:21;;;;;;;;;5.00;5.00;;;;;22.44;47.75;100986.11;110272;1265;19329;-65
2022/07/07 04:44:48;;;;;;;;;5.67;4.33;;;;;22.47;47.47;100985.83;110326;1264;19520;-63
2022/07/07 04:47:15;;;;;;;;;9.00;7.00;;;;;22.53;47.38;100984.94;110283;1264;17967;-64
2022/07/07 04:49:42;;;;;;;;;6.00;6.00;;;;;22.56;47.26;100990.54;110248;1265;21500;-65
2022/07/07 04:52:10;;;;;;;;;9.00;7.00;;;;;22.44;47.46;100990.40;110201;1265;18550;-61
2022/07/07 04:54:37;;;;;;;;;6.67;6.33;;;;;22.27;47.98;100989.58;110246;1264;20687;-63
2022/07/07 04:57:04;;;;;;;;;9.67;7.00;;;;;22.60;48.00;100983.75;110162;1264;18875;-62
2022/07/07 04:59:31;;;;;;;;;7.00;6.00;;;;;22.95;47.70;100978.11;110281;1264;18443;-64
2022/07/07 05:01:59;;;;;;;;;7.00;7.00;;;;;23.13;47.45;100979.58;110211;1265;18985;-62
2022/07/07 05:04:26;;;;;;;;;8.33;7.00;;;;;23.23;47.22;100979.68;110103;1265;19653;-61
2022/07/07 05:06:53;;;;;;;;;5.33;5.33;;;;;23.34;47.04;100982.67;110119;1264;18381;-64
2022/07/07 05:09:21;;;;;;;;;6.00;6.00;;;;;23.45;46.85;100978.78;110131;1265;21506;-63
2022/07/07 05:11:48;;;;;;;;;6.00;6.00;;;;;23.54;47.05;100974.31;110276;1264;19039;-65
2022/07/07 05:14:16;;;;;;;;;6.00;6.00;;;;;23.65;46.80;100968.14;110240;1264;19424;-63
2022/07/07 05:16:43;;;;;;;;;6.33;5.67;;;;;23.70;46.73;100966.35;110209;1264;18140;-63
2022/07/07 05:19:11;;;;;;;;;6.00;5.33;;;;;23.74;46.88;100963.12;110169;1265;18679;-66
2022/07/07 05:21:38;;;;;;;;;5.50;5.00;;;;;23.79;46.91;100962.89;110154;1265;21858;-63
2022/07/07 05:24:06;;;;;;;;;6.00;6.00;;;;;23.80;46.69;100962.86;110232;1264;18068;-63
2022/07/07 05:26:34;;;;;;;;;5.50;5.50;;;;;23.76;46.78;100958.92;110194;1265;18769;-60
2022/07/07 05:29:01;;;;;;;;;5.00;4.33;;;;;23.78;46.79;100957.36;110131;1264;18343;-62
2022/07/07 05:31:28;;;;;;;;;5.00;5.00;;;;;23.78;46.56;100952.05;110134;1264;18115;-62
2022/07/07 05:33:56;;;;;;;;;6.00;5.50;;;;;23.78;46.59;100948.43;110129;1265;18750;-63
2022/07/07 05:36:23;;;;;;;;;6.00;6.00;;;;;23.76;46.46;100949.74;110168;1265;21918;-63
2022/07/07 05:38:50;;;;;;;;;5.00;5.00;;;;;23.76;46.31;100949.11;110177;1265;18241;-63
2022/07/07 05:41:18;;;;;;;;;7.33;7.00;;;;;23.75;46.17;100946.03;110236;1265;18806;-64
2022/07/07 05:43:45;;;;;;;;;5.50;5.00;;;;;23.80;46.09;100948.70;110230;1264;18357;-60
2022/07/07 05:46:13;;;;;;;;;6.00;6.00;;;;;23.89;46.14;100946.46;110075;1264;18039;-61
2022/07/07 05:48:40;;;;;;;;;6.00;6.00;;;;;23.77;46.08;100949.23;110088;1265;19225;-63
2022/07/07 05:51:07;;;;;;;;;5.00;5.00;;;;;23.78;46.27;100949.02;110138;1264;19498;-63
2022/07/07 05:53:34;;;;;;;;;6.67;6.00;;;;;23.59;46.24;100949.14;110188;1265;22293;-63
2022/07/07 05:56:02;;;;;;;;;7.00;6.00;;;;;23.17;46.73;100951.05;110222;1264;18876;-63
2022/07/07 05:58:29;;;;;;;;;9.00;8.33;;;;;23.08;46.65;100944.92;110168;1264;19043;-62
2022/07/07 06:00:56;;;;;;;;;11.00;11.00;;;;;22.93;46.94;100947.41;110147;1264;21556;-64
2022/07/07 06:03:23;;;;;;;;;12.00;12.00;;;;;22.85;46.88;100953.59;109933;1265;20974;-63
2022/07/07 06:05:51;;;;;;;;;16.00;15.00;;;;;22.76;46.81;100953.80;110081;1264;19286;-63
2022/07/07 06:08:18;;;;;;;;;23.00;19.67;;;;;22.69;46.65;100951.89;110043;1264;23651;-62
2022/07/07 06:10:46;;;;;;;;;29.00;26.50;;;;;22.67;46.42;100951.27;110173;1265;18889;-64
2022/07/07 06:13:13;;;;;;;;;25.67;23.00;;;;;22.61;46.06;100948.00;110191;1264;19624;-64
2022/07/07 06:15:41;;;;;;;;;18.33;18.00;;;;;22.59;45.83;100948.05;110083;1264;18355;-64
2022/07/07 06:18:08;;;;;;;;;18.00;15.00;;;;;22.55;45.84;100948.48;110154;1265;18994;-63
2022/07/07 06:20:36;;;;;;;;;14.67;12.67;;;;;22.58;45.76;100947.27;109989;1264;22930;-61
2022/07/07 06:23:03;;;;;;;;;13.33;12.00;;;;;22.56;45.57;100950.02;110034;1264;18165;-63
2022/07/07 06:25:31;;;;;;;;;9.00;9.00;;;;;22.57;45.50;100946.98;109949;1264;20660;-60
2022/07/07 06:27:58;;;;;;;;;9.00;9.00;;;;;22.69;45.32;100944.30;110080;1264;18790;-62
2022/07/07 06:30:25;;;;;;;;;19.00;15.33;;;;;22.73;45.38;100943.65;110105;1265;18169;-62
2022/07/07 06:32:53;;;;;;;;;13.00;12.50;;;;;22.78;45.20;100943.07;110217;1265;22467;-62
2022/07/07 06:35:20;;;;;;;;;11.67;11.00;;;;;23.07;45.34;100938.39;110138;1265;22019;-64
2022/07/07 06:37:47;;;;;;;;;15.00;14.33;;;;;23.34;45.17;100936.30;110213;1264;18257;-64
2022/07/07 06:40:15;;;;;;;;;12.00;11.67;;;;;23.53;44.98;100934.15;110230;1264;22209;-65
2022/07/07 06:42:42;;;;;;;;;11.00;10.67;;;;;23.63;44.74;100935.14;110250;1264;18727;-63
2022/07/07 06:45:09;;;;;;;;;12.67;11.00;;;;;23.70;44.72;100934.58;110198;1264;18300;-66
2022/07/07 06:47:36;;;;;;;;;11.67;10.67;;;;;23.80;44.52;100933.34;110227;1265;18741;-63
2022/07/07 06:50:04;;;;;;;;;8.00;8.00;;;;;23.86;44.37;100933.00;110213;1264;30961;-63
2022/07/07 06:52:31;;;;;;;;;7.67;7.67;;;;;23.92;44.56;100927.79;110270;1264;18292;-64
2022/07/07 06:54:58;;;;;;;;;9.33;7.67;;;;;23.99;44.40;100928.93;110242;1264;21670;-65
2022/07/07 06:57:25;;;;;;;;;7.33;7.00;;;;;24.05;44.38;100923.16;110287;1264;18438;-63
2022/07/07 06:59:53;;;;;;;;;9.33;8.00;;;;;24.10;44.27;100920.20;110198;1264;22066;-63
2022/07/07 07:02:20;;;;;;;;;8.00;7.67;;;;;24.14;44.01;100922.11;110233;1265;18703;-64
2022/07/07 07:04:50;;;;;;;;;10.00;7.00;;;;;24.17;43.64;100920.27;110136;1266;18470;-64
2022/07/07 07:07:18;;;;;;;;;7.67;7.00;;;;;24.19;43.30;100917.59;110253;1264;18161;-63
2022/07/07 07:09:45;;;;;;;;;7.00;6.00;;;;;24.20;43.19;100919.03;110084;1265;19167;-64
2022/07/07 07:12:12;;;;;;;;;6.00;5.00;;;;;24.17;43.16;100920.39;110145;1264;20715;-64
2022/07/07 07:14:40;;;;;;;;;7.00;7.00;;;;;24.15;42.96;100920.21;110230;1264;18851;-63
2022/07/07 07:17:08;;;;;;;;;7.67;6.00;;;;;24.13;42.87;100920.30;110197;1264;19051;-63
2022/07/07 07:19:35;;;;;;;;;5.67;5.67;;;;;24.12;42.83;100921.89;110180;1264;18292;-64
2022/07/07 07:22:02;;;;;;;;;6.00;5.67;;;;;24.11;42.79;100921.30;110206;1264;18259;-64
2022/07/07 07:24:29;;;;;;;;;7.00;7.00;;;;;24.11;42.76;100918.48;110197;1264;20786;-64
2022/07/07 07:26:57;;;;;;;;;8.00;7.00;;;;;24.14;42.41;100916.32;110250;1264;18324;-65
2022/07/07 07:29:24;;;;;;;;;8.00;7.00;;;;;24.16;42.38;100912.96;110249;1264;17970;-63
2022/07/07 07:31:51;;;;;;;;;7.00;7.00;;;;;24.18;42.17;100915.55;110238;1264;19902;-63
2022/07/07 07:34:18;;;;;;;;;7.00;6.33;;;;;24.21;42.00;100911.52;110145;1264;19411;-63
2022/07/07 07:36:46;;;;;;;;;5.00;5.00;;;;;24.06;41.71;100906.68;110135;1264;17972;-64
2022/07/07 07:39:13;;;;;;;;;6.00;6.00;;;;;23.93;41.48;100907.49;110187;1264;19219;-65
2022/07/07 07:41:40;;;;;;;;;5.50;5.00;;;;;23.86;41.20;100906.34;109584;1264;841574;-63
2022/07/07 07:44:07;;;;;;;;;3.67;3.00;;;;;23.81;41.13;100906.52;110187;1265;19361;-62
2022/07/07 07:46:35;;;;;;;;;3.00;3.00;;;;;23.82;40.97;100902.71;110138;1264;18840;-64
2022/07/07 07:49:05;;;;;;;;;3.67;3.00;;;;;23.79;40.82;100899.04;110107;1265;19010;-62
2022/07/07 07:51:32;;;;;;;;;3.00;3.00;;;;;23.67;40.77;100898.75;110129;1265;18244;-63
2022/07/07 07:53:59;;;;;;;;;5.00;3.00;;;;;23.86;40.51;100894.87;110183;1264;18871;-63
2022/07/07 07:56:27;;;;;;;;;2.00;2.00;;;;;23.98;40.38;100892.65;110233;1264;18450;-64
2022/07/07 07:58:54;;;;;;;;;3.00;3.00;;;;;23.92;40.43;100890.56;110245;1265;22891;-63
2022/07/07 08:01:21;;;;;;;;;3.00;3.00;;;;;23.96;40.58;100890.81;110072;1265;18765;-64
2022/07/07 08:03:49;;;;;;;;;3.00;3.00;;;;;23.98;40.50;100892.05;110126;1264;19414;-63
2022/07/07 08:06:16;;;;;;;;;3.67;3.00;;;;;23.89;40.68;100883.46;110073;1264;18012;-61
2022/07/07 08:08:43;;;;;;;;;5.00;5.00;;;;;23.85;40.76;100882.20;110174;1264;18803;-62
2022/07/07 08:11:10;;;;;;;;;3.67;3.00;;;;;23.84;40.89;100885.59;110182;1264;18473;-61
2022/07/07 08:13:38;;;;;;;;;5.00;5.00;;;;;23.80;41.07;100892.40;110215;1264;22023;-62
2022/07/07 08:16:05;;;;;;;;;5.00;5.00;;;;;23.68;41.14;100888.19;110224;1264;19367;-63
2022/07/07 08:18:32;;;;;;;;;3.00;3.00;;;;;23.66;41.06;100891.16;110211;1264;19374;-64
2022/07/07 08:21:00;;;;;;;;;2.67;2.67;;;;;23.59;40.74;100888.42;110292;1264;19534;-61
2022/07/07 08:23:27;;;;;;;;;3.00;3.00;;;;;23.62;40.87;100885.83;110255;1265;18786;-64
2022/07/07 08:25:54;;;;;;;;;3.00;3.00;;;;;23.73;40.45;100886.23;110208;1264;22304;-64
2022/07/07 08:28:22;;;;;;;;;3.00;3.00;;;;;23.76;40.53;100885.66;110192;1264;17951;-63
2022/07/07 08:30:49;;;;;;;;;4.33;3.00;;;;;23.71;40.63;100892.69;110175;1264;19661;-63
2022/07/07 08:33:16;;;;;;;;;2.00;2.00;;;;;23.57;40.34;100890.85;110197;1265;18394;-64
2022/07/07 08:35:43;;;;;;;;;3.00;3.00;;;;;23.50;40.55;100888.02;110236;1264;21658;-63
2022/07/07 08:38:11;;;;;;;;;3.00;3.00;;;;;23.47;40.52;100890.20;110061;1264;18883;-63
2022/07/07 08:40:38;;;;;;;;;5.00;5.00;;;;;23.48;40.60;100893.25;110157;1265;19767;-63
2022/07/07 08:43:05;;;;;;;;;7.00;6.00;;;;;23.49;40.44;100888.40;110186;1264;18106;-62
2022/07/07 08:45:33;;;;;;;;;6.00;6.00;;;;;23.52;40.42;100887.41;110045;1265;18839;-64
2022/07/07 08:48:00;;;;;;;;;5.00;5.00;;;;;23.50;40.56;100888.83;110240;1264;19365;-63
2022/07/07 08:50:27;;;;;;;;;7.00;7.00;;;;;23.52;40.76;100889.68;110230;1264;18181;-62
2022/07/07 08:52:55;;;;;;;;;8.00;8.00;;;;;23.44;40.97;100888.23;110209;1264;20559;-63
2022/07/07 08:55:22;;;;;;;;;7.00;7.00;;;;;23.39;41.14;100888.48;110195;1265;18570;-61
2022/07/07 08:57:50;;;;;;;;;5.00;5.00;;;;;23.39;41.13;100886.80;110209;1265;18295;-62
2022/07/07 09:00:17;;;;;;;;;6.33;6.33;;;;;23.45;41.16;100887.41;110131;1265;20384;-63
2022/07/07 09:02:44;;;;;;;;;5.50;5.50;;;;;23.54;40.88;100885.13;110192;1265;18519;-63
2022/07/07 09:05:12;;;;;;;;;6.00;6.00;;;;;23.54;40.54;100883.31;110124;1264;26262;-63
2022/07/07 09:07:39;;;;;;;;;4.00;4.00;;;;;23.57;40.45;100881.54;110058;1265;20342;-63
2022/07/07 09:10:06;;;;;;;;;5.00;5.00;;;;;23.57;40.45;100880.77;110068;1265;18472;-63
2022/07/07 09:12:33;;;;;;;;;3.00;3.00;;;;;23.63;40.34;100879.65;110234;1264;18153;-63
2022/07/07 09:15:01;;;;;;;;;4.33;4.33;;;;;23.65;40.29;100881.75;110202;1264;18727;-62
2022/07/07 09:17:28;;;;;;;;;3.00;3.00;;;;;23.63;40.32;100882.91;110252;1264;18510;-65
2022/07/07 09:19:55;;;;;;;;;3.67;3.00;;;;;23.63;40.59;100876.55;110227;1264;19677;-64
2022/07/07 09:22:22;;;;;;;;;3.00;3.00;;;;;23.64;40.69;100874.59;110203;1265;22125;-65
2022/07/07 09:24:50;;;;;;;;;3.67;3.67;;;;;23.62;40.44;100872.24;110221;1264;22198;-63
2022/07/07 09:27:17;;;;;;;;;7.00;6.00;;;;;23.60;40.42;100868.95;110201;1265;20951;-64
2022/07/07 09:29:44;;;;;;;;;3.67;3.67;;;;;23.62;40.67;100868.52;110229;1264;19410;-64
2022/07/07 09:32:12;;;;;;;;;5.00;5.00;;;;;23.72;40.42;100865.27;110196;1265;18683;-63
2022/07/07 09:34:39;;;;;;;;;6.00;3.00;;;;;23.90;40.48;100859.45;110164;1264;17981;-62
2022/07/07 09:39:51;;;;;;;;;5.00;5.00;;;;;24.09;40.84;100864.88;110265;1264;18350;-62
2022/07/07 09:42:19;;;;;;;;;5.33;3.67;;;;;24.13;41.03;100859.31;110201;1265;18050;-64
2022/07/07 09:44:46;;;;;;;;;4.33;4.33;;;;;24.06;40.87;100866.27;110275;1264;20661;-63
2022/07/07 09:47:13;;;;;;;;;5.00;5.00;;;;;23.93;40.90;100865.52;110181;1264;18348;-65
2022/07/07 09:49:41;;;;;;;;;3.00;3.00;;;;;23.83;40.96;100868.57;110121;1265;18122;-67
2022/07/07 09:52:08;;;;;;;;;5.50;5.00;;;;;23.75;40.89;100870.70;110258;1264;24442;-63
2022/07/07 09:54:35;;;;;;;;;4.33;4.33;;;;;23.71;40.93;100874.15;110190;1265;18431;-65
2022/07/07 09:57:02;;;;;;;;;5.00;5.00;;;;;23.69;40.99;100870.60;110204;1264;20831;-63
2022/07/07 09:59:30;;;;;;;;;5.00;5.00;;;;;23.68;40.88;100874.22;110256;1264;20628;-64
2022/07/07 10:01:57;;;;;;;;;6.00;5.67;;;;;23.67;40.89;100876.61;110227;1264;21231;-64
2022/07/07 10:04:25;;;;;;;;;7.00;6.33;;;;;23.64;40.71;100875.92;110217;1265;18024;-63
2022/07/07 10:06:52;;;;;;;;;8.00;7.00;;;;;23.56;40.61;100872.11;110209;1265;21718;-64
2022/07/07 10:09:19;;;;;;;;;9.33;8.00;;;;;23.55;40.47;100879.00;110246;1264;18529;-64
2022/07/07 10:11:46;;;;;;;;;10.00;10.00;;;;;23.52;40.65;100877.44;110259;1264;19622;-64
2022/07/07 10:14:14;;;;;;;;;10.00;9.00;;;;;23.53;40.37;100878.67;110117;1264;19178;-64
2022/07/07 10:16:41;;;;;;;;;10.00;8.00;;;;;23.54;40.51;100879.67;110188;1265;22046;-63
2022/07/07 10:19:08;;;;;;;;;6.67;6.67;;;;;23.44;40.74;100882.17;110220;1264;22162;-63
2022/07/07 10:21:36;;;;;;;;;10.00;10.00;;;;;23.30;41.10;100875.77;110251;1265;18818;-65
2022/07/07 10:24:03;;;;;;;;;7.67;7.00;;;;;23.09;41.68;100879.45;110245;1264;18262;-63
2022/07/07 10:26:31;;;;;;;;;7.00;6.00;;;;;22.96;42.11;100880.36;110235;1264;18070;-61
2022/07/07 10:28:59;;;;;;;;;6.00;6.00;;;;;22.92;42.14;100873.92;110062;1264;18890;-65
2022/07/07 10:31:26;;;;;;;;;5.00;5.00;;;;;22.97;41.86;100879.27;110228;1264;19260;-63
2022/07/07 10:33:54;;;;;;;;;5.67;5.67;;;;;22.83;41.61;100881.86;110238;1264;18090;-63
2022/07/07 10:36:21;;;;;;;;;9.00;9.00;;;;;22.79;41.59;100878.80;110272;1264;20873;-64
2022/07/07 10:38:48;;;;;;;;;25.67;24.00;;;;;22.94;41.50;100878.23;110264;1265;20185;-63
2022/07/07 10:41:15;;;;;;;;;24.67;23.33;;;;;23.10;41.24;100871.42;110180;1265;18442;-65
2022/07/07 10:43:43;;;;;;;;;15.50;14.50;;;;;23.38;40.63;100871.16;110206;1264;18763;-65
2022/07/07 10:46:10;;;;;;;;;10.67;10.00;;;;;23.37;39.91;100866.52;110176;1265;18777;-63
2022/07/07 10:48:37;;;;;;;;;9.00;9.00;;;;;23.26;39.70;100860.79;110010;1264;18214;-61
2022/07/07 10:51:05;;;;;;;;;7.00;7.00;;;;;23.40;39.50;100865.63;110120;1264;22410;-62
2022/07/07 10:53:32;;;;;;;;;11.00;10.00;;;;;23.35;39.46;100858.02;110157;1264;18530;-63
2022/07/07 10:56:02;;;;;;;;;6.00;6.00;;;;;23.35;39.56;100861.41;110248;1264;18234;-65
2022/07/07 10:58:29;;;;;;;;;7.00;6.33;;;;;23.26;39.89;100863.55;110164;1264;18868;-65
2022/07/07 11:00:56;;;;;;;;;6.33;6.00;;;;;23.16;40.06;100862.96;110174;1264;18479;-63
2022/07/07 11:03:24;;;;;;;;;8.33;6.00;;;;;23.10;40.16;100862.17;110133;1264;21598;-63
2022/07/07 11:05:51;;;;;;;;;6.00;6.00;;;;;23.06;40.02;100858.46;110182;1265;18827;-64
2022/07/07 11:08:18;;;;;;;;;5.67;5.67;;;;;23.08;39.93;100856.09;110192;1264;22088;-63
2022/07/07 11:10:45;;;;;;;;;5.00;5.00;;;;;23.22;39.70;100853.38;110180;1265;18047;-64
2022/07/07 11:13:13;;;;;;;;;9.00;6.00;;;;;23.30;39.51;100855.87;110123;1265;21682;-63
2022/07/07 11:15:40;;;;;;;;;6.67;6.67;;;;;23.32;39.22;100853.12;110177;1265;18289;-63
2022/07/07 11:18:07;;;;;;;;;10.33;9.33;;;;;23.40;39.11;100851.95;110103;1264;17928;-62